This is the latest recevied weather packets stored in our database for station/object S56OA-13. If no packets are shown the sender has not sent any weather packets the latest 10 day(s).
| Time | Temp. | Humidity | Pressure | Rain* | Wind** | Luminosity | Snow |
|---|---|---|---|---|---|---|---|
| 1788405865 | 17.78° C | 42% | 869.4 hPa | - | - | - | - |
| 1788404064 | 17.22° C | 42% | 869.5 hPa | - | - | - | - |
| 1788402237 | 17.78° C | 42% | 869.9 hPa | - | - | - | - |
| 1788400425 | 17.78° C | 42% | 870.2 hPa | - | - | - | - |
| 1788398623 | 17.78° C | 41% | 869.7 hPa | - | - | - | - |
| 1788396822 | 17.78° C | 42% | 869.2 hPa | - | - | - | - |
| 1788395022 | 18.33° C | 42% | 871.1 hPa | - | - | - | - |
| 1788393220 | 18.33° C | 42% | 871.2 hPa | - | - | - | - |
| 1788391418 | 18.89° C | 41% | 872.6 hPa | - | - | - | - |
| 1788389617 | 18.33° C | 42% | 872.5 hPa | - | - | - | - |
| 1788387815 | 18.33° C | 41% | 871.8 hPa | - | - | - | - |
| 1788386014 | 17.78° C | 42% | 870.2 hPa | - | - | - | - |
| 1788384213 | 17.78° C | 42% | 871 hPa | - | - | - | - |
| 1788382412 | 18.33° C | 42% | 871.4 hPa | - | - | - | - |
| 1788380611 | 18.33° C | 43% | 871.7 hPa | - | - | - | - |
| 1788378810 | 18.33° C | 42% | 872.2 hPa | - | - | - | - |
| 1788377009 | 18.89° C | 42% | 873.2 hPa | - | - | - | - |
| 1788375208 | 18.89° C | 42% | 874 hPa | - | - | - | - |
| 1788373407 | 19.44° C | 43% | 874.9 hPa | - | - | - | - |
| 1788371606 | 20° C | 43% | 877.9 hPa | - | - | - | - |
| 1788369804 | 22.78° C | 42% | 886.7 hPa | - | - | - | - |
| 1788368003 | 23.89° C | 43% | 891.9 hPa | - | - | - | - |
| 1788366201 | 25.56° C | 43% | 897 hPa | - | - | - | - |
| 1788364400 | 29.44° C | 42% | 911.2 hPa | - | - | - | - |
| 1788362599 | 29.44° C | 42% | 918.3 hPa | - | - | - | - |
* Rain since midnight (hover to see other rain measurements)
** Current wind speed in m/s (hover to see current wind gust speed)